Sedgwick Reserve, California Weather observations

Data are for 10 minute period ending at time listed.
 Day   Time   Solar   Ave.   Ave.  Ave.  Vector  Max.   Baro.   Total    
  of    of     Rad.   Air    Rel.  Wind   Wind   Wind  Press.  Precip.   
Year   Day            Temp.  Hum.  Speed  Dir.   Gust                    
2017   (PST)  Kw/m2    F      %     mph   deg.    mph    mb.     in.     
-------------------------------------------------------------------------
  15    7:00   0.00   35.4    98    0.8    29     2.0   973.7    0.00 
  15    7:10   0.01   34.9    98    0.1   266     0.8   973.7    0.00 
  15    7:20   0.01   35.8    98    1.0   258     2.3   973.7    0.00 
  15    7:30   0.05   35.2    98    1.5   338     3.1   973.7    0.00 
  15    7:40   0.07   36.7    99    3.7   359     5.0   973.8    0.00 
  15    7:50   0.08   36.1    98    0.8   304     2.9   973.9    0.00 
  15    8:00   0.08   37.0    99    0.2   352     1.6   973.9    0.00 
  15    8:10   0.10   37.8    98    1.2   275     2.7   974.0    0.00 
  15    8:20   0.15   38.9    98    0.9   342     2.2   974.1    0.00 
  15    8:30   0.24   40.8    98    0.3    15     1.8   974.2    0.00 
  15    8:40   0.19   43.7    96    0.1    41     0.9   974.4    0.00 
  15    8:50   0.24   44.3    94    0.4    25     1.7   974.5    0.00 
  15    9:00   0.28   45.1    92    0.0   343     0.9   974.8    0.00 
  15    9:10   0.34   47.6    90    0.2   132     1.2   975.0    0.00 
  15    9:20   0.34   48.7    84    0.4   224     1.8   975.1    0.00 
  15    9:30   0.35   49.9    75    0.5   168     1.7   975.3    0.00 
  15    9:40   0.31   51.4    69    1.1   172     2.0   975.3    0.00 
  15    9:50   0.43   52.3    63    1.7   158     2.9   975.5    0.00 
  15   10:00   0.47   53.5    62    1.6   162     2.9   975.5    0.00 
  15   10:10   0.45   53.9    64    1.7   164     3.6   975.7    0.00 
  15   10:20   0.48   54.9    64    2.0   136     4.9   975.7    0.00 
  15   10:30   0.52   55.2    69    3.6   126     5.8   975.8    0.00 
  15   10:40   0.53   55.3    72    3.2   119     5.2   975.9    0.00 
  15   10:50   0.51   54.9    72    3.6   111     5.4   975.9    0.00 
  15   11:00   0.54   55.6    70    2.8   116     5.0   975.9    0.00 
  15   11:10   0.56   56.6    65    2.8   127     4.6   975.9    0.00 
  15   11:20   0.58   56.9    64    3.3   151     5.8   975.8    0.00 
  15   11:30   0.58   57.0    58    3.4   171     5.9   975.6    0.00 
  15   11:40   0.58   57.0    50    3.4   200     8.3   975.6    0.00 
  15   11:50   0.60   56.0    47    5.9   236     9.6   975.4    0.00 
  15   12:00   0.61   56.2    48    4.5   236    10.7   975.3    0.00 
  15   12:10   0.61   57.4    49    3.2   251     6.0   975.1    0.00 
  15   12:20   0.61   58.4    52    4.5   256    10.0   974.9    0.00 
  15   12:30   0.60   57.0    55    6.1   261    10.2   974.8    0.00 
  15   12:40   0.60   56.7    55    7.1   254    12.3   974.7    0.00 
  15   12:50   0.57   57.1    54    7.0   232    11.5   974.6    0.00 
  15   13:00   0.56   57.1    53    6.4   253    12.1   974.6    0.00 
  15   13:10   0.51   56.9    53    6.2   253    10.2   974.4    0.00 
  15   13:20   0.49   57.5    54    5.4   227     9.1   974.2    0.00 
  15   13:30   0.40   57.1    54    4.3   235     8.2   974.1    0.00 
  15   13:40   0.42   57.7    54    5.5   250     9.2   974.0    0.00 
  15   13:50   0.39   57.2    54    5.9   230    11.0   974.1    0.00 
  15   14:00   0.45   57.8    52    5.2   215     8.6   974.1    0.00 
  15   14:10   0.42   57.9    53    4.9   225     8.3   974.1    0.00 
  15   14:20   0.41   58.5    52    4.7   229    10.7   974.1    0.00 
  15   14:30   0.36   58.5    51    4.0   234     8.6   974.0    0.00 
  15   14:40   0.31   58.6    51    4.2   225     8.3   974.0    0.00 
  15   14:50   0.33   58.2    52    5.5   209     8.8   974.1    0.00 
  15   15:00   0.29   58.7    52    5.9   240     9.5   974.2    0.00 
  15   15:10   0.25   58.0    54    4.7   246     7.5   974.2    0.00 
  15   15:20   0.24   58.3    55    4.9   212     7.6   974.2    0.00 
  15   15:30   0.20   58.4    56    4.3   241     9.5   974.3    0.00 
  15   15:40   0.20   57.9    56    5.0   229     7.8   974.3    0.00 
  15   15:50   0.17   58.0    55    4.8   226     8.0   974.3    0.00 
  15   16:00   0.13   57.7    56    3.5   243     5.7   974.3    0.00 
  15   16:10   0.12   57.7    56    3.9   243     6.5   974.3    0.00 
  15   16:20   0.09   57.4    56    3.7   237     5.6   974.4    0.00 
  15   16:30   0.06   57.1    57    3.2   245     5.0   974.4    0.00 
  15   16:40   0.04   56.6    58    3.8   248     5.5   974.5    0.00 
  15   16:50   0.02   56.0    60    3.7   258     5.1   974.5    0.00 
  15   17:00   0.01   54.9    62    3.9   273     4.8   974.7    0.00 
  15   17:10   0.01   53.6    65    3.4   272     4.5   974.8    0.00 
  15   17:20   0.00   52.6    67    3.1   276     4.0   974.8    0.00 
  15   17:30   0.00   52.2    68    3.0   298     4.5   974.9    0.00 
  15   17:40   0.00   51.2    69    2.6   313     4.4   975.0    0.00 
  15   17:50   0.00   49.3    72    0.1   349     1.7   975.0    0.00 
  15   18:00   0.00   48.1    75    0.6   334     2.5   975.1    0.00 
  15   18:10   0.00   47.3    76    0.8   264     2.3   975.1    0.00 
  15   18:20   0.00   46.9    77    0.4   287     2.6   975.1    0.00 
  15   18:30   0.00   46.4    77    1.9   348     4.5   975.2    0.00 
  15   18:40   0.00   45.8    78    0.7   322     1.8   975.2    0.00 
  15   18:50   0.00   45.0    79    1.3   359     3.6   975.3    0.00 
  15   19:00   0.00   43.9    81    0.2    17     1.8   975.4    0.00 
  15   19:10   0.00   43.3    83    0.0   232     0.9   975.4    0.00 
  15   19:20   0.00   43.2    84    0.5     6     1.5   975.4    0.00 
  15   19:30   0.00   42.6    84    0.3    12     1.5   975.3    0.00 
  15   19:40   0.00   42.2    85    0.0     0     0.0   975.3    0.00 
  15   19:50   0.00   41.7    86    1.0   294     2.0   975.4    0.00 
  15   20:00   0.00   41.5    86    2.0     6     3.4   975.3    0.00 
  15   20:10   0.00   40.6    88    0.3   317     1.6   975.4    0.00 
  15   20:20   0.00   40.4    88    0.9   342     3.1   975.5    0.00 
  15   20:30   0.00   40.3    88    0.6   280     2.6   975.4    0.00 
  15   20:40   0.00   39.9    89    0.5    47     1.5   975.4    0.00 
  15   20:50   0.00   39.6    90    0.6   289     1.6   975.5    0.00 
  15   21:00   0.00   39.7    90    0.1    25     1.2   975.5    0.00 
  15   21:10   0.00   39.1    90    0.3   267     1.1   975.5    0.00 
  15   21:20   0.00   38.9    91    0.1   267     0.9   975.4    0.00 
  15   21:30   0.00   38.7    92    1.0   266     2.3   975.4    0.00 
  15   21:40   0.00   38.4    92    1.4    16     4.1   975.4    0.00 
  15   21:50   0.00   37.8    93    1.3   341     4.2   975.5    0.00 
  15   22:00   0.00   38.2    93    0.2   266     1.2   975.6    0.00 
  15   22:10   0.00   38.2    93    0.2   266     1.5   975.7    0.00 
  15   22:20   0.00   37.9    93    0.0     0     0.0   975.8    0.00 
  15   22:30   0.00   38.2    94    0.7   330     3.2   975.8    0.00 
  15   22:40   0.00   37.8    94    1.0   268     3.6   975.8    0.00 
  15   22:50   0.00   37.6    94    1.9   351     4.0   975.9    0.00 
  15   23:00   0.00   38.0    95    1.3   284     2.6   975.9    0.00 
  15   23:10   0.00   38.7    95    2.7   348     5.8   975.9    0.00 
  15   23:20   0.00   38.7    94    1.8   348     5.3   975.9    0.00 
  15   23:30   0.00   38.3    94    0.1   274     0.7   975.8    0.00 
  15   23:40   0.00   38.5    94    0.2   341     2.9   975.7    0.00 
  15   23:50   0.00   38.0    94    0.4   283     1.6   975.6    0.00 
  16    0:00   0.00   37.8    94    0.9   346     3.1   975.6    0.00 
  16    0:10   0.00   37.6    95    0.7   248     1.4   975.6    0.00 
  16    0:20   0.00   37.8    95    1.9   347     3.7   975.5    0.00 
  16    0:30   0.00   37.4    95    0.2   317     1.6   975.3    0.00 
  16    0:40   0.00   37.9    95    0.0   262     0.5   975.2    0.00 
  16    0:50   0.00   37.4    95    1.1     8     4.8   975.1    0.00 
  16    1:00   0.00   37.4    96    3.0   325     5.4   975.0    0.00 
  16    1:10   0.00   37.9    96    2.1   338     6.3   975.1    0.00 
  16    1:20   0.00   38.0    95    3.2   341     5.4   975.2    0.00 
  16    1:30   0.00   38.2    95    0.5   320     2.4   975.1    0.00 
  16    1:40   0.00   37.9    95    0.6   257     1.7   975.1    0.00 
  16    1:50   0.00   38.0    95    0.4     0     3.4   975.1    0.00 
  16    2:00   0.00   37.2    95    3.7   358     6.1   975.0    0.00 
  16    2:10   0.00   37.5    96    0.4   280     1.8   974.9    0.00 
  16    2:20   0.00   37.4    96    0.7   294     2.3   974.9    0.00 
  16    2:30   0.00   37.3    95    2.1     4     4.0   974.9    0.00 
  16    2:40   0.00   37.4    96    0.9   276     2.3   974.9    0.00 
  16    2:50   0.00   37.3    95    1.2   345     2.6   974.9    0.00 
  16    3:00   0.00   37.2    96    0.6   280     2.3   974.8    0.00 
  16    3:10   0.00   37.2    95    0.8   330     2.1   974.6    0.00 
  16    3:20   0.00   37.2    95    0.0   297     0.4   974.4    0.00 
  16    3:30   0.00   36.9    95    2.7   355     5.9   974.3    0.00 
  16    3:40   0.00   36.6    95    1.1   303     5.3   974.1    0.00 
  16    3:50   0.00   37.0    95    2.7   347     6.7   974.0    0.00 
  16    4:00   0.00   37.1    96    1.3   355     6.0   974.1    0.00 
  16    4:10   0.00   37.4    95    2.6   339     5.6   974.1    0.00 
  16    4:20   0.00   37.5    95    0.3   261     1.5   974.2    0.00 
  16    4:30   0.00   37.5    95    0.6   260     1.6   974.2    0.00 
  16    4:40   0.00   37.4    95    0.2   248     1.3   974.2    0.00 
  16    4:50   0.00   37.1    95    0.9   299     2.8   974.2    0.00 
  16    5:00   0.00   37.4    95    1.7   321     3.2   974.2    0.00 
  16    5:10   0.00   37.8    95    1.7   339     3.9   974.3    0.00 
  16    5:20   0.00   37.4    94    1.6   270     3.7   974.5    0.00 
  16    5:30   0.00   37.6    94    1.0   348     2.8   974.6    0.00 
  16    5:40   0.00   37.7    94    0.2   325     1.6   974.7    0.00 
  16    5:50   0.00   37.7    94    0.1   347     1.3   974.9    0.00 
  16    6:00   0.00   37.6    94    1.3   359     4.7   974.9    0.00 
  16    6:10   0.00   37.4    94    1.5   294     5.3   975.1    0.00 
  16    6:20   0.00   37.0    94    0.7   255     2.1   975.3    0.00 
  16    6:30   0.00   37.2    95    0.8   259     1.4   975.4    0.00 
  16    6:40   0.00   36.7    94    0.8     6     2.3   975.5    0.00 
  16    6:50   0.00   36.6    95    0.2   315     1.2   975.6    0.00 

Return to Sedgwick Reserve graphs page.


Western Regional Climate Center,wrcc@dri.edu